Time;durP1;ratioP1;P1;durP2;ratioP2;P2;SDS_P1;SDS_P2;PMS_P1;PMS_P2;Temp;Humidity;BMP_temperature;BMP_pressure;BME280_temperature;BME280_humidity;BME280_pressure;Samples;Min_cycle;Max_cycle;Signal;HPM_P1;HPM_P2
2024/02/26 00:00:17;;;;;;;1.37;0.93;;;2.20;99.90;;;;;;5091755;28;20036;-66
2024/02/26 00:03:03;;;;;;;1.67;1.00;;;2.20;99.90;;;;;;5086873;28;20543;-66
2024/02/26 00:05:49;;;;;;;2.25;1.30;;;2.20;99.90;;;;;;5089764;28;20092;-66
2024/02/26 00:08:35;;;;;;;3.40;1.23;;;2.30;99.90;;;;;;5085183;28;20081;-66
2024/02/26 00:11:21;;;;;;;3.63;1.03;;;2.30;99.90;;;;;;5095762;28;20035;-66
2024/02/26 00:14:07;;;;;;;2.83;1.10;;;2.30;99.90;;;;;;5095257;28;20104;-66
2024/02/26 00:16:53;;;;;;;2.53;1.00;;;2.20;99.90;;;;;;5093623;28;20032;-66
2024/02/26 00:19:38;;;;;;;1.98;0.95;;;2.30;99.90;;;;;;5077858;28;20615;-67
2024/02/26 00:22:24;;;;;;;4.87;1.47;;;2.40;99.90;;;;;;5080484;28;20040;-66
2024/02/26 00:25:12;;;;;;;2.60;1.00;;;2.20;99.90;;;;;;5079167;28;20114;-66
2024/02/26 00:27:58;;;;;;;3.20;0.88;;;2.10;99.90;;;;;;5066025;28;20495;-66
2024/02/26 00:30:43;;;;;;;1.08;0.85;;;2.20;99.90;;;;;;5085458;28;20687;-66
2024/02/26 00:33:29;;;;;;;2.07;0.97;;;2.20;99.90;;;;;;5086740;28;20031;-66
2024/02/26 00:36:15;;;;;;;2.40;0.80;;;2.20;99.90;;;;;;5098766;28;20038;-66
2024/02/26 00:39:03;;;;;;;1.83;0.90;;;2.30;99.90;;;;;;5096781;28;20562;-66
2024/02/26 00:41:51;;;;;;;2.42;1.10;;;2.30;99.90;;;;;;5100014;27;20610;-66
2024/02/26 00:44:37;;;;;;;1.30;0.95;;;2.20;99.90;;;;;;5088593;28;20028;-66
2024/02/26 00:47:23;;;;;;;1.90;1.10;;;2.10;99.90;;;;;;5095215;28;20097;-66
2024/02/26 00:50:09;;;;;;;2.13;0.82;;;2.10;99.90;;;;;;5101789;28;20027;-66
2024/02/26 00:52:55;;;;;;;1.23;0.70;;;2.10;99.90;;;;;;5095418;28;20082;-66
2024/02/26 00:55:41;;;;;;;0.52;0.52;;;2.10;99.90;;;;;;5103260;28;20047;-66
2024/02/26 00:58:27;;;;;;;1.13;0.80;;;2.30;99.90;;;;;;5101207;28;20039;-67
2024/02/26 01:01:13;;;;;;;0.82;0.70;;;2.50;99.90;;;;;;5095073;28;20044;-66
2024/02/26 01:03:59;;;;;;;2.05;0.60;;;2.60;99.90;;;;;;5101854;27;20058;-67
2024/02/26 01:06:44;;;;;;;2.30;0.90;;;2.70;99.90;;;;;;5101980;28;20043;-67
2024/02/26 01:09:30;;;;;;;0.75;0.60;;;2.70;99.90;;;;;;5110518;27;20020;-67
2024/02/26 01:12:16;;;;;;;1.50;0.80;;;2.70;99.90;;;;;;5103907;28;20027;-67
2024/02/26 01:15:03;;;;;;;1.38;0.73;;;2.60;99.90;;;;;;5102761;27;20257;-67
2024/02/26 01:17:50;;;;;;;;;;;2.60;99.90;;;;;;5097047;28;20028;-67
2024/02/26 01:20:36;;;;;;;1.23;0.63;;;2.50;99.90;;;;;;5094222;28;19908;-67
2024/02/26 01:23:22;;;;;;;1.05;0.93;;;2.50;99.90;;;;;;5088542;28;20039;-67
2024/02/26 01:26:08;;;;;;;1.52;0.80;;;2.50;99.90;;;;;;5091234;28;20511;-67
2024/02/26 01:28:55;;;;;;;2.70;0.97;;;2.50;99.90;;;;;;5080773;28;20107;-67
2024/02/26 01:31:41;;;;;;;4.15;1.13;;;2.50;99.90;;;;;;5089343;28;20481;-67
2024/02/26 01:34:27;;;;;;;1.10;0.70;;;2.50;99.90;;;;;;5091749;28;20031;-67
2024/02/26 01:37:13;;;;;;;1.50;0.83;;;2.50;99.90;;;;;;5098509;28;20075;-67
2024/02/26 01:39:59;;;;;;;2.08;0.93;;;2.40;99.90;;;;;;5081722;28;20408;-67
2024/02/26 01:42:45;;;;;;;2.83;0.90;;;2.30;99.90;;;;;;5092618;28;20044;-67
2024/02/26 01:45:31;;;;;;;2.15;1.00;;;2.30;99.90;;;;;;5101965;28;20047;-67
2024/02/26 01:48:16;;;;;;;1.10;0.70;;;2.20;99.90;;;;;;5100671;28;20059;-67
2024/02/26 01:51:03;;;;;;;4.20;1.10;;;2.20;99.90;;;;;;5081943;28;20020;-67
2024/02/26 01:53:49;;;;;;;1.45;0.80;;;2.10;99.90;;;;;;5084101;28;20535;-67
2024/02/26 01:56:37;;;;;;;1.20;0.80;;;2.20;99.90;;;;;;5094474;28;20057;-67
2024/02/26 01:59:24;;;;;;;1.90;0.93;;;2.20;99.90;;;;;;5098722;28;20067;-67
2024/02/26 02:02:12;;;;;;;1.63;0.90;;;2.20;99.90;;;;;;5087741;28;20071;-67
2024/02/26 02:04:57;;;;;;;2.03;0.90;;;2.10;99.90;;;;;;5096876;28;20044;-67
2024/02/26 02:07:44;;;;;;;1.10;0.70;;;2.10;99.90;;;;;;5092814;28;20468;-67
2024/02/26 02:10:30;;;;;;;;;;;2.10;99.90;;;;;;5090255;28;21024;-67
2024/02/26 02:13:16;;;;;;;1.85;0.82;;;2.10;99.90;;;;;;5087960;28;19913;-67
2024/02/26 02:16:02;;;;;;;1.53;0.80;;;2.10;99.90;;;;;;5081605;28;20035;-67
2024/02/26 02:18:48;;;;;;;1.67;0.85;;;2.20;99.90;;;;;;5091451;28;20039;-67
2024/02/26 02:21:34;;;;;;;3.65;1.15;;;2.30;99.90;;;;;;5092012;28;20538;-67
2024/02/26 02:24:20;;;;;;;1.23;0.80;;;2.20;99.90;;;;;;5090307;28;20031;-67
2024/02/26 02:27:06;;;;;;;1.13;0.80;;;2.30;99.90;;;;;;5085201;28;20707;-67
2024/02/26 02:29:52;;;;;;;1.60;0.90;;;2.30;99.90;;;;;;5085595;28;20120;-67
2024/02/26 02:32:40;;;;;;;2.20;1.40;;;2.40;99.90;;;;;;5096315;27;20039;-67
2024/02/26 02:35:26;;;;;;;2.85;1.15;;;2.40;99.90;;;;;;5088298;28;20034;-67
2024/02/26 02:38:12;;;;;;;1.20;0.80;;;2.30;99.90;;;;;;5088079;28;20488;-67
2024/02/26 02:40:57;;;;;;;2.10;1.10;;;2.30;99.90;;;;;;5084930;28;20167;-67
2024/02/26 02:43:43;;;;;;;2.08;0.85;;;2.30;99.90;;;;;;5092794;27;20101;-67
2024/02/26 02:46:30;;;;;;;1.63;1.08;;;2.40;99.90;;;;;;5080636;28;20039;-67
2024/02/26 02:49:16;;;;;;;2.72;1.23;;;2.30;99.90;;;;;;5096830;28;20092;-67
2024/02/26 02:52:02;;;;;;;1.83;0.90;;;2.30;99.90;;;;;;5098260;27;20456;-67
2024/02/26 02:54:48;;;;;;;2.50;1.02;;;2.40;99.90;;;;;;5100727;27;20032;-67
2024/02/26 02:57:36;;;;;;;2.40;1.08;;;2.50;99.90;;;;;;5097467;28;20631;-67
2024/02/26 03:00:25;;;;;;;4.75;1.52;;;2.50;99.90;;;;;;5098411;28;20063;-67
2024/02/26 03:03:10;;;;;;;2.22;1.10;;;2.60;99.90;;;;;;5088950;28;20549;-67
2024/02/26 03:05:56;;;;;;;1.65;0.90;;;2.60;99.90;;;;;;5087394;28;20028;-67
2024/02/26 03:08:42;;;;;;;2.22;1.20;;;2.60;99.90;;;;;;5094148;28;20094;-67
2024/02/26 03:11:28;;;;;;;2.53;1.10;;;2.60;99.90;;;;;;5099007;28;20093;-67
2024/02/26 03:14:14;;;;;;;2.03;1.20;;;2.70;99.90;;;;;;5087828;28;20094;-67
2024/02/26 03:17:00;;;;;;;1.23;0.90;;;2.70;99.90;;;;;;5097262;28;20039;-67
2024/02/26 03:19:46;;;;;;;1.85;0.90;;;2.70;99.90;;;;;;5089867;28;20456;-67
2024/02/26 03:22:32;;;;;;;2.20;1.00;;;2.70;99.90;;;;;;5097893;28;20672;-67
2024/02/26 03:25:18;;;;;;;1.33;0.80;;;2.70;99.90;;;;;;5097410;28;20435;-66
2024/02/26 03:28:04;;;;;;;3.00;1.90;;;2.70;99.90;;;;;;5089544;28;20031;-66
2024/02/26 03:30:50;;;;;;;1.88;1.30;;;2.70;99.90;;;;;;5098046;28;20598;-67
2024/02/26 03:33:36;;;;;;;3.17;1.10;;;2.70;99.90;;;;;;5099981;28;20035;-67
2024/02/26 03:36:22;;;;;;;1.37;0.93;;;2.70;99.90;;;;;;5098335;28;20262;-67
2024/02/26 03:39:08;;;;;;;1.83;1.00;;;2.60;99.90;;;;;;5101551;28;20541;-66
2024/02/26 03:41:54;;;;;;;4.68;1.63;;;2.60;99.90;;;;;;5093551;28;20050;-66
2024/02/26 03:44:40;;;;;;;2.15;1.38;;;2.60;99.90;;;;;;5097446;28;20040;-66
2024/02/26 03:47:25;;;;;;;1.80;1.15;;;2.60;99.90;;;;;;5102307;28;20059;-66
2024/02/26 03:50:11;;;;;;;3.22;1.10;;;2.70;99.90;;;;;;5086804;28;20604;-66
2024/02/26 03:52:57;;;;;;;1.97;1.10;;;2.60;99.90;;;;;;5098464;27;20484;-66
2024/02/26 03:55:43;;;;;;;2.55;1.00;;;2.50;99.90;;;;;;5085120;28;20040;-66
2024/02/26 03:58:29;;;;;;;2.83;1.07;;;2.60;99.90;;;;;;5091545;28;20048;-66
2024/02/26 04:01:15;;;;;;;2.10;1.40;;;2.50;99.90;;;;;;5092245;28;20152;-66
2024/02/26 04:04:01;;;;;;;1.88;1.00;;;2.50;99.90;;;;;;5085656;28;20115;-66
2024/02/26 04:06:47;;;;;;;2.63;1.23;;;2.40;99.90;;;;;;5090296;28;20039;-66
2024/02/26 04:09:33;;;;;;;1.35;0.95;;;2.40;99.90;;;;;;5101168;28;20335;-66
2024/02/26 04:12:19;;;;;;;4.22;1.10;;;2.40;99.90;;;;;;5096700;27;20559;-66
2024/02/26 04:15:06;;;;;;;2.87;1.27;;;2.50;99.90;;;;;;5086348;28;20048;-66
2024/02/26 04:17:52;;;;;;;2.42;1.25;;;2.40;99.90;;;;;;5093494;28;20086;-66
2024/02/26 04:20:41;;;;;;;3.15;1.38;;;2.40;99.90;;;;;;5098674;28;20388;-66
2024/02/26 04:23:27;;;;;;;4.18;1.20;;;2.40;99.90;;;;;;5101847;28;20032;-66
2024/02/26 04:26:14;;;;;;;;;;;2.40;99.90;;;;;;5092865;28;20542;-66
2024/02/26 04:28:59;;;;;;;1.02;0.73;;;2.40;99.90;;;;;;5090004;28;19946;-66
2024/02/26 04:31:46;;;;;;;1.57;0.90;;;2.40;99.90;;;;;;5087693;28;20063;-66
2024/02/26 04:34:32;;;;;;;2.13;1.00;;;2.40;99.90;;;;;;5103120;28;20035;-66
2024/02/26 04:37:18;;;;;;;2.10;1.40;;;2.30;99.90;;;;;;5095773;28;20051;-66
2024/02/26 04:40:04;;;;;;;2.57;1.40;;;2.30;99.90;;;;;;5094156;28;20566;-66
2024/02/26 04:42:50;;;;;;;3.40;1.80;;;2.30;99.90;;;;;;5100751;28;20043;-67
2024/02/26 04:45:36;;;;;;;3.53;1.70;;;2.30;99.90;;;;;;5093941;28;20059;-66
2024/02/26 04:48:23;;;;;;;3.85;1.90;;;2.30;99.90;;;;;;5100852;28;20081;-66
2024/02/26 04:51:08;;;;;;;3.65;1.75;;;2.30;99.90;;;;;;5088958;28;20043;-66
2024/02/26 04:53:54;;;;;;;6.88;2.25;;;2.20;99.90;;;;;;5100335;28;20042;-66
2024/02/26 04:56:40;;;;;;;3.47;1.40;;;2.20;99.90;;;;;;5100754;28;20056;-66
2024/02/26 04:59:26;;;;;;;2.08;1.23;;;2.20;99.90;;;;;;5102004;28;20039;-66
2024/02/26 05:02:12;;;;;;;4.37;1.83;;;2.10;99.90;;;;;;5100352;28;20039;-66
2024/02/26 05:04:58;;;;;;;2.13;1.35;;;2.10;99.90;;;;;;5097779;28;20281;-66
2024/02/26 05:07:45;;;;;;;4.95;1.42;;;2.10;99.90;;;;;;5102000;27;20187;-66
2024/02/26 05:10:31;;;;;;;2.45;1.30;;;2.10;99.90;;;;;;5093039;28;20481;-67
2024/02/26 05:13:17;;;;;;;2.17;1.50;;;2.10;99.90;;;;;;5100026;28;20038;-66
2024/02/26 05:16:03;;;;;;;;;;;2.10;99.90;;;;;;5098281;28;20644;-66
2024/02/26 05:18:49;;;;;;;4.13;1.70;;;2.10;99.90;;;;;;5099901;28;19912;-66
2024/02/26 05:21:35;;;;;;;3.43;1.57;;;2.10;99.90;;;;;;5101765;28;20036;-66
2024/02/26 05:24:22;;;;;;;2.37;1.17;;;2.10;99.90;;;;;;5099151;28;20138;-66
2024/02/26 05:27:08;;;;;;;;;;;2.10;99.90;;;;;;5101242;27;20286;-66
2024/02/26 05:29:54;;;;;;;1.67;1.27;;;2.10;99.90;;;;;;5101025;27;19908;-66
2024/02/26 05:32:40;;;;;;;2.10;1.40;;;2.10;99.90;;;;;;5098075;27;20043;-66
2024/02/26 05:35:26;;;;;;;2.97;1.58;;;2.10;99.90;;;;;;5087078;28;20110;-66
2024/02/26 05:38:12;;;;;;;3.58;1.67;;;2.10;99.90;;;;;;5099322;28;20498;-66
2024/02/26 05:40:58;;;;;;;3.87;2.17;;;2.10;99.90;;;;;;5096670;28;20092;-66
2024/02/26 05:43:44;;;;;;;3.47;2.00;;;2.20;99.90;;;;;;5083081;28;20233;-67
2024/02/26 05:46:30;;;;;;;5.57;2.83;;;2.30;99.90;;;;;;5103199;28;20043;-67
2024/02/26 05:49:16;;;;;;;3.13;2.17;;;2.30;99.90;;;;;;5086103;28;20598;-68
2024/02/26 05:52:02;;;;;;;2.70;2.10;;;2.40;99.90;;;;;;5099128;28;20030;-68
2024/02/26 05:54:48;;;;;;;2.70;1.70;;;2.30;99.90;;;;;;5082182;27;20177;-66
2024/02/26 05:57:34;;;;;;;2.60;1.67;;;2.30;99.90;;;;;;5101428;28;20039;-66
2024/02/26 06:00:20;;;;;;;2.70;1.65;;;2.30;99.90;;;;;;5101885;28;20076;-66
2024/02/26 06:03:06;;;;;;;3.35;1.75;;;2.20;99.90;;;;;;5086958;28;20040;-67
2024/02/26 06:05:53;;;;;;;3.00;1.80;;;2.20;99.90;;;;;;5086437;28;20036;-65
2024/02/26 06:08:38;;;;;;;4.93;2.05;;;2.20;99.90;;;;;;5084372;28;20031;-64
2024/02/26 06:11:24;;;;;;;2.40;1.70;;;2.30;99.90;;;;;;5089526;28;20087;-65
2024/02/26 06:14:12;;;;;;;5.55;2.22;;;2.30;99.90;;;;;;5097033;28;20029;-64
2024/02/26 06:16:58;;;;;;;5.70;2.40;;;2.40;99.90;;;;;;5097491;28;20417;-64
2024/02/26 06:19:44;;;;;;;3.38;2.10;;;2.40;99.90;;;;;;5091122;28;20035;-64
2024/02/26 06:22:30;;;;;;;9.30;2.38;;;2.40;99.90;;;;;;5080439;28;20127;-64
2024/02/26 06:25:16;;;;;;;4.17;2.30;;;2.40;99.90;;;;;;5096624;28;20031;-64
2024/02/26 06:28:02;;;;;;;4.47;2.37;;;2.40;99.90;;;;;;5094967;28;20089;-64
2024/02/26 06:30:48;;;;;;;4.90;2.40;;;2.40;99.90;;;;;;5091306;28;20779;-64
2024/02/26 06:33:34;;;;;;;3.40;1.90;;;2.40;99.90;;;;;;5097205;28;20827;-64
2024/02/26 06:36:19;;;;;;;3.77;2.67;;;2.40;99.90;;;;;;5096629;28;20687;-64
2024/02/26 06:39:05;;;;;;;3.40;1.97;;;2.40;99.90;;;;;;5096537;28;20040;-64
2024/02/26 06:41:57;;;;;;;5.70;2.15;;;2.40;99.90;;;;;;5083175;28;20036;-64
2024/02/26 06:44:43;;;;;;;3.75;2.42;;;2.50;99.90;;;;;;5092214;28;20039;-64
2024/02/26 06:47:29;;;;;;;4.45;2.00;;;2.40;99.90;;;;;;5100440;28;20046;-64
2024/02/26 06:50:15;;;;;;;4.05;2.55;;;2.50;99.90;;;;;;5098430;28;20034;-64
2024/02/26 06:53:01;;;;;;;5.47;2.33;;;2.50;99.90;;;;;;5095807;28;20627;-64
2024/02/26 06:55:49;;;;;;;5.07;2.60;;;2.60;99.90;;;;;;5095795;28;20038;-64
2024/02/26 06:58:35;;;;;;;4.35;2.78;;;2.60;99.90;;;;;;5101082;28;20032;-64
2024/02/26 07:01:21;;;;;;;5.65;2.88;;;2.50;99.90;;;;;;5102788;28;20469;-64
2024/02/26 07:04:07;;;;;;;4.73;3.13;;;2.50;99.90;;;;;;5093915;28;20059;-64
2024/02/26 07:06:52;;;;;;;5.75;3.13;;;2.40;99.90;;;;;;5100268;28;20439;-64
2024/02/26 07:09:41;;;;;;;4.97;3.07;;;2.40;99.90;;;;;;5090327;28;20060;-64
2024/02/26 07:12:27;;;;;;;7.72;2.90;;;2.50;99.90;;;;;;5096260;28;20113;-64
2024/02/26 07:15:13;;;;;;;5.35;3.20;;;2.50;99.90;;;;;;5098970;28;20024;-64
2024/02/26 07:18:02;;;;;;;4.28;2.72;;;2.60;99.90;;;;;;5099025;28;20174;-64
2024/02/26 07:20:48;;;;;;;4.93;2.15;;;2.60;99.90;;;;;;5092569;28;20040;-64
2024/02/26 07:23:34;;;;;;;5.30;2.87;;;2.60;99.90;;;;;;5102238;28;20043;-63
2024/02/26 07:26:20;;;;;;;3.67;2.47;;;2.70;99.90;;;;;;5091020;28;20063;-63
2024/02/26 07:29:06;;;;;;;8.03;4.37;;;2.80;99.90;;;;;;5082955;28;20028;-62
2024/02/26 07:31:52;;;;;;;11.27;5.33;;;2.80;99.90;;;;;;5099298;28;20036;-62
2024/02/26 07:34:41;;;;;;;7.95;3.60;;;2.70;99.90;;;;;;5093052;28;20040;-63
2024/02/26 07:37:27;;;;;;;6.90;3.55;;;2.70;99.90;;;;;;5096527;28;20479;-65
2024/02/26 07:40:13;;;;;;;5.10;3.47;;;2.70;99.90;;;;;;5097115;28;20112;-63
2024/02/26 07:42:59;;;;;;;6.53;3.58;;;2.80;99.90;;;;;;5071722;28;20055;-65
2024/02/26 07:45:45;;;;;;;7.03;4.50;;;2.90;99.90;;;;;;5099419;28;20043;-64
2024/02/26 07:48:30;;;;;;;7.57;4.35;;;2.90;99.90;;;;;;5085958;28;20028;-64
2024/02/26 07:51:17;;;;;;;6.90;3.60;;;2.90;99.90;;;;;;5091194;28;20500;-65
2024/02/26 07:54:03;;;;;;;10.02;4.72;;;3.00;99.90;;;;;;5101853;28;20060;-65
2024/02/26 07:56:49;;;;;;;7.50;3.93;;;3.00;99.90;;;;;;5093331;28;20038;-65
2024/02/26 07:59:34;;;;;;;5.07;3.08;;;3.10;99.90;;;;;;5104668;28;20380;-65
2024/02/26 08:02:21;;;;;;;5.20;3.30;;;3.20;99.90;;;;;;5096305;28;20275;-65
2024/02/26 08:05:07;;;;;;;4.57;3.20;;;3.20;99.90;;;;;;5102914;28;20036;-65
2024/02/26 08:07:54;;;;;;;5.97;3.17;;;3.20;99.90;;;;;;5096409;28;20134;-65
2024/02/26 08:10:40;;;;;;;6.57;2.75;;;3.30;99.90;;;;;;5100246;28;20115;-65
2024/02/26 08:13:26;;;;;;;4.80;2.72;;;3.30;99.90;;;;;;5089251;28;20547;-65
2024/02/26 08:16:12;;;;;;;4.80;3.00;;;3.30;99.90;;;;;;5099611;23;20072;-64
2024/02/26 08:18:58;;;;;;;4.72;2.97;;;3.40;99.90;;;;;;5059992;28;20114;-64
2024/02/26 08:21:44;;;;;;;4.00;2.28;;;3.50;99.90;;;;;;5047229;28;20500;-64
2024/02/26 08:24:30;;;;;;;4.10;2.75;;;3.60;99.90;;;;;;5060081;28;20093;-64
2024/02/26 08:27:16;;;;;;;5.90;3.83;;;3.60;99.90;;;;;;5040202;28;20119;-65
2024/02/26 08:30:01;;;;;;;6.90;3.42;;;3.70;99.90;;;;;;5043079;28;20091;-64
2024/02/26 08:32:48;;;;;;;7.33;3.70;;;3.70;99.90;;;;;;5038771;28;20041;-64
2024/02/26 08:35:34;;;;;;;9.63;4.72;;;3.70;99.90;;;;;;5051078;28;20151;-64
2024/02/26 08:38:20;;;;;;;9.20;5.00;;;3.70;99.90;;;;;;5041949;28;20561;-64
2024/02/26 08:41:06;;;;;;;16.02;6.25;;;3.70;99.90;;;;;;5042907;28;20135;-64
2024/02/26 08:43:51;;;;;;;10.20;5.10;;;3.80;99.90;;;;;;5045224;28;20567;-64
2024/02/26 08:46:37;;;;;;;9.20;5.47;;;3.80;99.90;;;;;;5041290;28;20033;-64
2024/02/26 08:49:23;;;;;;;7.70;5.03;;;3.90;99.90;;;;;;5028864;28;20393;-64
2024/02/26 08:52:09;;;;;;;8.63;5.03;;;3.90;99.90;;;;;;5034754;28;20044;-64
2024/02/26 08:54:55;;;;;;;10.13;5.70;;;4.00;99.90;;;;;;5040246;28;20041;-63
2024/02/26 08:57:41;;;;;;;9.70;5.07;;;4.20;99.90;;;;;;5026919;28;20037;-63
2024/02/26 09:00:27;;;;;;;9.75;5.28;;;4.20;99.90;;;;;;5038397;28;20048;-63
2024/02/26 09:03:12;;;;;;;7.47;4.43;;;4.30;99.90;;;;;;5035346;28;20495;-62
2024/02/26 09:05:58;;;;;;;9.30;5.50;;;4.30;99.90;;;;;;5037095;28;20039;-61
2024/02/26 09:08:44;;;;;;;10.47;5.83;;;4.40;99.90;;;;;;5042839;28;20028;-62
2024/02/26 09:11:31;;;;;;;11.68;6.15;;;4.30;99.90;;;;;;5052825;28;20030;-62
2024/02/26 09:14:18;;;;;;;;;;;4.30;99.90;;;;;;5027618;28;20063;-62
2024/02/26 09:17:03;;;;;;;8.13;5.63;;;4.30;99.90;;;;;;5021569;28;19916;-62
2024/02/26 09:19:49;;;;;;;13.07;6.03;;;4.30;99.90;;;;;;5039363;28;20033;-62
2024/02/26 09:22:37;;;;;;;10.70;6.32;;;4.20;99.90;;;;;;5040310;28;20060;-62
2024/02/26 09:25:23;;;;;;;11.10;6.50;;;4.30;99.90;;;;;;5040449;28;20402;-62
2024/02/26 09:28:09;;;;;;;11.93;6.70;;;4.20;99.90;;;;;;5037594;28;20033;-62
2024/02/26 09:30:55;;;;;;;11.32;6.75;;;4.20;99.90;;;;;;5036801;28;20044;-61
2024/02/26 09:33:42;;;;;;;10.15;6.18;;;4.30;99.90;;;;;;5038914;28;20040;-62
2024/02/26 09:36:28;;;;;;;13.00;6.85;;;4.30;99.90;;;;;;5040705;28;20045;-65
2024/02/26 09:39:17;;;;;;;12.43;7.13;;;4.40;99.90;;;;;;5039377;28;20477;-63
2024/02/26 09:42:05;;;;;;;14.30;7.05;;;4.40;99.90;;;;;;5037177;28;20291;-63
2024/02/26 09:44:54;;;;;;;13.38;7.40;;;4.40;99.90;;;;;;5035011;28;20497;-63
2024/02/26 09:47:41;;;;;;;13.40;7.82;;;4.40;99.90;;;;;;5036991;28;20098;-63
2024/02/26 09:50:27;;;;;;;13.25;7.28;;;4.40;99.90;;;;;;5037765;28;20040;-64
2024/02/26 09:53:14;;;;;;;12.83;7.70;;;4.40;99.90;;;;;;5038024;28;20032;-65
2024/02/26 09:56:00;;;;;;;13.43;7.82;;;4.40;99.90;;;;;;5040570;28;20043;-64
2024/02/26 09:58:48;;;;;;;15.60;8.07;;;4.40;99.90;;;;;;5040426;28;20040;-64
2024/02/26 10:01:36;;;;;;;15.18;8.45;;;4.50;99.90;;;;;;5034691;28;20044;-64
2024/02/26 10:04:22;;;;;;;14.63;8.63;;;4.60;99.90;;;;;;5041435;28;20040;-64
2024/02/26 10:07:12;;;;;;;14.80;8.48;;;4.70;99.90;;;;;;5039375;28;20029;-64
2024/02/26 10:09:58;;;;;;;17.00;9.18;;;4.70;99.90;;;;;;5035759;28;20086;-64
2024/02/26 10:12:44;;;;;;;18.92;9.45;;;4.80;99.90;;;;;;5037024;28;20071;-64
2024/02/26 10:15:30;;;;;;;16.00;9.55;;;5.00;99.90;;;;;;5040615;28;20247;-64
2024/02/26 10:18:16;;;;;;;12.65;6.85;;;5.10;99.90;;;;;;5037616;28;20113;-65
2024/02/26 10:21:03;;;;;;;17.93;9.90;;;5.20;99.90;;;;;;5042796;28;20489;-65
2024/02/26 10:23:50;;;;;;;;;;;5.20;99.90;;;;;;5044978;28;20119;-64
2024/02/26 10:26:36;;;;;;;19.60;10.97;;;5.10;99.90;;;;;;5040901;28;19947;-65
2024/02/26 10:29:24;;;;;;;17.65;10.50;;;5.00;99.90;;;;;;5044183;28;20048;-64
2024/02/26 10:32:11;;;;;;;19.75;11.75;;;5.00;99.90;;;;;;5033755;28;20118;-65
2024/02/26 10:34:57;;;;;;;;;;;5.00;99.90;;;;;;5042220;28;20029;-66
2024/02/26 10:37:43;;;;;;;22.27;11.90;;;5.10;99.90;;;;;;5038100;28;20446;-65
2024/02/26 10:40:29;;;;;;;25.35;12.95;;;5.10;99.90;;;;;;5045623;28;20032;-66
2024/02/26 10:43:16;;;;;;;28.25;13.90;;;5.10;99.90;;;;;;5039501;28;20651;-66
2024/02/26 10:46:01;;;;;;;21.63;12.90;;;5.10;99.90;;;;;;5042520;28;20033;-63
2024/02/26 10:48:51;;;;;;;24.98;13.68;;;5.20;99.90;;;;;;5037071;28;20033;-64
2024/02/26 10:51:38;;;;;;;23.02;12.82;;;5.20;99.90;;;;;;5041021;28;20494;-64
2024/02/26 10:54:26;;;;;;;22.88;14.02;;;5.20;99.90;;;;;;5042677;28;20033;-67
2024/02/26 10:57:12;;;;;;;26.10;14.20;;;5.20;99.90;;;;;;5042659;28;20047;-67
2024/02/26 11:00:00;;;;;;;21.58;12.68;;;5.30;99.90;;;;;;5038068;28;20090;-67
2024/02/26 11:02:48;;;;;;;21.85;12.80;;;5.30;99.90;;;;;;5041341;28;20476;-67
2024/02/26 11:05:34;;;;;;;21.55;12.48;;;5.30;99.90;;;;;;5046365;28;20040;-67
2024/02/26 11:08:22;;;;;;;19.67;12.10;;;5.40;99.90;;;;;;5042317;28;20032;-67
2024/02/26 11:11:08;;;;;;;22.13;12.20;;;5.50;99.90;;;;;;5039862;28;20029;-65
2024/02/26 11:13:55;;;;;;;26.15;14.32;;;5.60;99.90;;;;;;5029205;28;20021;-65
2024/02/26 11:16:42;;;;;;;22.45;13.18;;;5.60;99.90;;;;;;5041770;28;20080;-66
2024/02/26 11:19:30;;;;;;;;;;;5.60;99.90;;;;;;5040920;28;20308;-65
2024/02/26 11:22:15;;;;;;;22.75;13.18;;;5.60;99.90;;;;;;5038163;28;19919;-65
2024/02/26 11:25:01;;;;;;;24.67;13.48;;;5.70;99.90;;;;;;5041110;28;20624;-65
2024/02/26 11:28:01;;;;;;;22.33;13.13;;;5.60;99.90;;;;;;5037560;28;20112;-65
2024/02/26 11:30:49;;;;;;;25.05;14.55;;;5.60;99.90;;;;;;5042635;28;20849;-65
2024/02/26 11:33:35;;;;;;;23.60;13.63;;;5.60;99.90;;;;;;5041404;28;20033;-65
2024/02/26 11:36:24;;;;;;;21.25;12.75;;;5.60;99.90;;;;;;5038345;28;20140;-64
2024/02/26 11:39:16;;;;;;;21.88;12.30;;;5.70;99.90;;;;;;5044602;28;20041;-64
2024/02/26 11:42:09;;;;;;;22.63;13.05;;;5.80;99.90;;;;;;5041611;28;20041;-64
2024/02/26 11:45:00;;;;;;;23.10;12.88;;;5.70;99.90;;;;;;5043199;28;20489;-64
2024/02/26 11:47:56;;;;;;;21.50;12.60;;;5.70;99.90;;;;;;5040467;28;20037;-63
2024/02/26 11:50:49;;;;;;;21.08;12.23;;;5.70;99.90;;;;;;5027624;28;20029;-64
2024/02/26 11:53:48;;;;;;;22.33;12.88;;;5.80;99.90;;;;;;5043286;28;20025;-63
2024/02/26 11:56:34;;;;;;;19.58;11.77;;;5.70;99.90;;;;;;5036706;28;20033;-63
2024/02/26 11:59:37;;;;;;;20.77;13.13;;;5.70;99.90;;;;;;5040321;28;20037;-64
2024/02/26 12:02:58;;;;;;;18.83;11.60;;;5.70;99.90;;;;;;5037110;28;20033;-64
2024/02/26 12:05:44;;;;;;;21.17;11.68;;;5.80;99.90;;;;;;5041490;28;20489;-63
2024/02/26 12:08:29;;;;;;;21.88;11.00;;;5.80;99.90;;;;;;5040747;28;20037;-64
2024/02/26 12:11:16;;;;;;;19.88;11.32;;;5.80;99.90;;;;;;5038943;28;20043;-63
2024/02/26 12:14:02;;;;;;;19.27;11.75;;;5.90;99.90;;;;;;5024847;28;20026;-63
2024/02/26 12:16:48;;;;;;;23.58;11.93;;;6.00;99.90;;;;;;5040201;28;20103;-64
2024/02/26 12:19:35;;;;;;;21.87;11.27;;;6.00;99.90;;;;;;5045157;28;20523;-64
2024/02/26 12:22:21;;;;;;;16.90;10.73;;;6.10;99.90;;;;;;5044616;28;20035;-64
2024/02/26 12:25:09;;;;;;;19.88;11.32;;;6.10;99.90;;;;;;5045979;28;20041;-63
2024/02/26 12:27:55;;;;;;;16.40;10.23;;;6.10;99.90;;;;;;5026992;28;20024;-63
2024/02/26 12:30:41;;;;;;;13.88;8.50;;;6.10;99.90;;;;;;5044414;28;20634;-64
2024/02/26 12:33:28;;;;;;;19.05;11.45;;;6.20;99.90;;;;;;5043202;28;20032;-64
2024/02/26 12:36:14;;;;;;;18.52;10.95;;;6.20;99.90;;;;;;5041379;28;20045;-65
2024/02/26 12:39:05;;;;;;;19.33;10.47;;;6.20;99.90;;;;;;5042306;28;20041;-64
2024/02/26 12:41:52;;;;;;;20.10;11.07;;;6.20;99.90;;;;;;5044021;28;20040;-63
2024/02/26 12:44:38;;;;;;;19.58;10.48;;;6.20;99.90;;;;;;5044356;28;20041;-64
2024/02/26 12:47:24;;;;;;;17.10;11.43;;;6.20;99.90;;;;;;5041644;28;20080;-64
2024/02/26 12:50:10;;;;;;;15.32;10.27;;;6.20;99.90;;;;;;5044336;28;20102;-64
2024/02/26 12:52:56;;;;;;;20.67;11.00;;;6.10;99.90;;;;;;5043678;28;20032;-64
2024/02/26 12:55:43;;;;;;;17.55;10.70;;;6.20;99.90;;;;;;5043001;28;20039;-64
2024/02/26 12:58:31;;;;;;;17.23;9.48;;;6.20;99.90;;;;;;5044173;28;20064;-64
2024/02/26 13:01:20;;;;;;;15.32;9.65;;;6.20;99.90;;;;;;5040624;28;20132;-63
2024/02/26 13:04:07;;;;;;;20.80;10.40;;;6.20;99.90;;;;;;5043462;28;20032;-63
2024/02/26 13:06:52;;;;;;;16.83;10.23;;;6.20;99.90;;;;;;5038375;28;20044;-63
2024/02/26 13:09:38;;;;;;;20.23;10.07;;;6.20;99.90;;;;;;5044120;28;20536;-63
2024/02/26 13:12:25;;;;;;;14.97;9.03;;;6.20;99.90;;;;;;5042496;28;20441;-64
2024/02/26 13:15:16;;;;;;;15.02;9.27;;;6.20;99.90;;;;;;5043065;28;20056;-63
2024/02/26 13:18:13;;;;;;;17.23;9.60;;;6.20;99.90;;;;;;5041334;28;20043;-63
2024/02/26 13:21:16;;;;;;;14.52;9.00;;;6.10;99.90;;;;;;5040504;28;20108;-64
2024/02/26 13:24:01;;;;;;;16.80;9.93;;;6.10;99.90;;;;;;5043212;28;20037;-63
2024/02/26 13:26:57;;;;;;;19.53;10.20;;;6.30;99.90;;;;;;5037466;28;20033;-63
2024/02/26 13:29:43;;;;;;;18.30;10.18;;;6.40;99.90;;;;;;5041287;28;20528;-63
2024/02/26 13:32:31;;;;;;;18.65;10.90;;;6.20;99.90;;;;;;5040615;28;20044;-64
2024/02/26 13:35:18;;;;;;;16.70;9.90;;;6.30;99.90;;;;;;5043018;28;20025;-63
2024/02/26 13:38:03;;;;;;;;;;;6.30;99.90;;;;;;5041701;28;20513;-64
2024/02/26 13:40:50;;;;;;;15.52;9.63;;;6.30;99.90;;;;;;5043809;28;20332;-63
2024/02/26 13:43:36;;;;;;;;;;;6.20;99.90;;;;;;5043311;28;20115;-63
2024/02/26 13:46:22;;;;;;;13.95;9.35;;;6.20;99.90;;;;;;5040637;28;19920;-64
2024/02/26 13:49:09;;;;;;;15.10;9.30;;;6.30;99.90;;;;;;5042747;28;20110;-64
2024/02/26 13:51:55;;;;;;;16.42;8.85;;;6.30;99.90;;;;;;5040005;28;20041;-64
2024/02/26 13:54:41;;;;;;;20.13;9.82;;;6.30;99.90;;;;;;5043062;28;20110;-64
2024/02/26 13:57:27;;;;;;;15.13;9.40;;;6.30;99.90;;;;;;5041003;28;20037;-64
2024/02/26 14:00:13;;;;;;;16.40;9.60;;;6.30;99.90;;;;;;5041191;28;20053;-64
2024/02/26 14:03:00;;;;;;;15.35;8.95;;;6.40;99.90;;;;;;5039692;28;20043;-63
2024/02/26 14:05:46;;;;;;;15.82;10.13;;;6.30;99.90;;;;;;5039684;28;20029;-63
2024/02/26 14:08:32;;;;;;;15.05;9.02;;;6.40;99.90;;;;;;5041674;28;20506;-63
2024/02/26 14:11:17;;;;;;;18.88;9.73;;;6.40;99.90;;;;;;5040521;28;20038;-63
2024/02/26 14:14:03;;;;;;;21.33;9.93;;;6.30;99.90;;;;;;5043816;28;20028;-63
2024/02/26 14:16:49;;;;;;;16.23;9.50;;;6.20;99.90;;;;;;5040727;28;20095;-64
2024/02/26 14:19:35;;;;;;;16.08;8.95;;;6.10;99.90;;;;;;5040371;28;20811;-63
2024/02/26 14:22:21;;;;;;;18.80;9.82;;;6.10;99.90;;;;;;5038337;28;20555;-63
2024/02/26 14:25:09;;;;;;;17.40;9.73;;;6.10;99.90;;;;;;5044306;28;20040;-64
2024/02/26 14:27:55;;;;;;;17.67;10.48;;;6.10;99.90;;;;;;5039462;28;20706;-63
2024/02/26 14:30:40;;;;;;;16.23;9.32;;;6.10;99.90;;;;;;5042713;28;20687;-63
2024/02/26 14:33:26;;;;;;;16.58;9.40;;;6.20;99.90;;;;;;5039741;28;20032;-64
2024/02/26 14:36:12;;;;;;;16.42;9.40;;;6.10;99.90;;;;;;5039392;28;20025;-64